27 septembre 2022

Temps Code Temps Temp. Vue Base cloud Vent METAR/SPECI
13:30
V
18 °C 10 km+ 6.400 ft 290° 290° 11 kt METAR LFBD 271130Z AUTO 29011KT 270V330 9999 FEW030/// SCT048/// OVC064/// //////TCU 18/12 Q1014 TEMPO 3000 -SHRA
13:00
V
18 °C 10 km+ 6.400 ft 270° 270° 11 kt METAR LFBD 271100Z AUTO 27011KT 240V300 9999 FEW035 SCT049 BKN064 18/11 Q1014 TEMPO 3000 -SHRA SCT030TCU BKN040
12:30
V
17 °C 10 km+ 3.800 ft 290° 290° 14 kt METAR LFBD 271030Z AUTO 29014KT 260V330 9999 FEW032 BKN038 BKN045 17/10 Q1014 TEMPO 3000 -SHRA SCT030TCU BKN040
12:00
V
18 °C 10 km+ 5.800 ft 250° 250° 5 kt METAR LFBD 271000Z AUTO 25005KT 210V290 9999 FEW033 SCT046 BKN058 18/11 Q1014 TEMPO 3000 -SHRA SCT030TCU BKN040
11:30
V
17 °C 10 km+ - 280° 280° 5 kt METAR LFBD 270930Z AUTO 28005KT 220V320 CAVOK 17/11 Q1014 TEMPO 3000 -SHRA SCT030TCU BKN040
11:00
V
16 °C 10 km+ - 280° 280° 4 kt METAR LFBD 270900Z AUTO 28004KT 230V310 CAVOK 16/11 Q1014 TEMPO 3000 -SHRA SCT030TCU BKN040
10:30
V
16 °C 10 km+ 6.000 ft 290° 290° 6 kt METAR LFBD 270830Z AUTO 29006KT 9999 FEW042 OVC060 16/11 Q1014 TEMPO 3000 -SHRA SCT030TCU BKN040
10:00
V
15 °C 10 km+ 5.400 ft 270° 270° 3 kt METAR LFBD 270800Z AUTO 27003KT 220V290 9999 FEW042 BKN054 BKN064 15/11 Q1014 TEMPO 3000 -SHRA SCT030TCU BKN040
09:30
V
14 °C 10 km+ 5.600 ft 260° 260° 5 kt METAR LFBD 270730Z AUTO 26005KT 9999 SCT045 BKN056 14/11 Q1014 TEMPO 3000 -SHRA SCT030TCU BKN040
09:00
V
13 °C 10 km+ 5.400 ft 250° 250° 4 kt METAR LFBD 270700Z AUTO 25004KT 9999 FEW040 BKN054 BKN064 13/11 Q1013 TEMPO 3000 -SHRA SCT030TCU BKN040
08:30
V
13 °C 10 km+ - Var Var 2 kt METAR LFBD 270630Z AUTO VRB02KT CAVOK 13/11 Q1013 TEMPO 3000 -SHRA SCT030TCU BKN040
08:00
V
13 °C 10 km+ 4.800 ft 350° 350° 5 kt METAR LFBD 270600Z AUTO 35005KT 310V060 9999 -RA FEW022 SCT039 BKN048 13/11 Q1013 NOSIG
07:30
V
13 °C 10 km+ 3.500 ft 290° 290° 8 kt METAR LFBD 270530Z AUTO 29008KT 9999 -RA SCT029 BKN035 OVC046 13/11 Q1013 NOSIG
07:00
V
13 °C 10 km+ 5.600 ft 260° 260° 2 kt METAR LFBD 270500Z AUTO 26002KT 9999 FEW036 OVC056 13/11 Q1013 NOSIG
06:30
V
14 °C 10 km+ 5.400 ft Var Var 3 kt METAR LFBD 270430Z AUTO VRB03KT 9999 FEW036 OVC054 14/11 Q1013 NOSIG
06:00
V
14 °C 10 km+ 4.800 ft 310° 310° 3 kt METAR LFBD 270400Z AUTO 31003KT 9999 SCT035 BKN048 OVC054 14/11 Q1012 NOSIG
05:30
V
14 °C 10 km+ 5.400 ft 280° 280° 5 kt METAR LFBD 270330Z AUTO 28005KT 9999 SCT030 SCT043 OVC054 14/11 Q1012 NOSIG
05:00
V
13 °C 10 km+ 3.100 ft 250° 250° 5 kt METAR LFBD 270300Z AUTO 25005KT 9999 BKN031 BKN039 BKN046 13/11 Q1012 NOSIG
04:30
V
13 °C 10 km+ 5.200 ft 260° 260° 4 kt METAR LFBD 270230Z AUTO 26004KT 9999 FEW034 BKN052 OVC180 13/11 Q1012 NOSIG
04:00
V
13 °C 10 km+ 3.600 ft 260° 260° 4 kt METAR LFBD 270200Z AUTO 26004KT 9999 BKN036 BKN047 OVC054 13/11 Q1012 NOSIG
03:30
V
13 °C 10 km+ - 240° 240° 5 kt METAR LFBD 270130Z AUTO 24005KT CAVOK 13/11 Q1012 NOSIG
03:00
V
13 °C 10 km+ 5.400 ft 250° 250° 4 kt METAR LFBD 270100Z AUTO 25004KT 9999 FEW034 SCT041 BKN054 13/11 Q1012 NOSIG
02:30
V
13 °C 10 km+ - 240° 240° 6 kt METAR LFBD 270030Z AUTO 24006KT CAVOK 13/11 Q1012 NOSIG
02:00
V
13 °C 10 km+ 24.000 ft 300° 300° 3 kt METAR LFBD 270000Z AUTO 30003KT 9999 FEW032 SCT056 BKN240 13/11 Q1012 NOSIG
01:30
V
14 °C 10 km+ 5.400 ft 280° 280° 5 kt METAR LFBD 262330Z AUTO 28005KT 9999 SCT032 BKN054 14/12 Q1012 NOSIG
01:00
V
14 °C 10 km+ - 280° 280° 7 kt METAR LFBD 262300Z AUTO 28007KT CAVOK 14/12 Q1012 NOSIG
00:30
V
15 °C 10 km+ - 290° 290° 7 kt METAR LFBD 262230Z AUTO 29007KT CAVOK 15/13 Q1012 NOSIG
00:00
V
15 °C 10 km+ 4.600 ft 300° 300° 8 kt METAR LFBD 262200Z AUTO 30008KT 9999 SCT033 BKN046 BKN056 15/14 Q1011 NOSIG

26 septembre 2022

Temps Code Temps Temp. Vue Base cloud Vent METAR/SPECI
23:30
V
15 °C 10 km+ 5.600 ft 270° 270° 7 kt METAR LFBD 262130Z AUTO 27007KT 9999 SCT034 BKN056 BKN082 15/14 Q1011 NOSIG
23:00
V
15 °C 10 km+ 4.100 ft 280° 280° 9 kt METAR LFBD 262100Z AUTO 28009KT 9999 FEW013/// BKN041/// OVC056/// //////TCU 15/14 Q1011 BECMG BKN040
22:30
M
15 °C 10 km+ 2.900 ft 310° 310° 9 kt METAR LFBD 262030Z AUTO 31009KT 280V340 9999 FEW006/// SCT014/// BKN029/// //////TCU 15/15 Q1011 BECMG BKN040
22:00
I
16 °C 3,7 km 700 ft 250° 250° 16 kt METAR LFBD 262000Z AUTO 25016KT 3700 RA BR OVC007/// //////TCU 16/15 Q1011 TEMPO 25015G25KT BKN005
21:30
M
16 °C 6 km 1.900 ft 260° 260° 15 kt METAR LFBD 261930Z AUTO 26015KT 6000 -RA SCT013/// BKN019/// OVC028/// //////CB 16/14 Q1011 TEMPO 25015G25KT 4000 RA BKN005
21:00
V
17 °C 10 km+ 3.100 ft 250° 250° 17 kt METAR LFBD 261900Z AUTO 25017KT 9999 -RA SCT025 BKN031 BKN037 17/13 Q1011 TEMPO 25015G25KT 4000 RA BKN005
20:30
V
17 °C 10 km+ 3.500 ft 250° 250° 14 kt METAR LFBD 261830Z AUTO 25014KT 9999 BKN035/// BKN042/// OVC049/// //////TCU 17/12 Q1011 TEMPO 25015G25KT 4000 RA BKN005
20:00
V
17 °C 10 km+ 4.100 ft 270° 270° 16 kt METAR LFBD 261800Z AUTO 27016KT 9999 SCT033 BKN041 BKN050 17/11 Q1012 TEMPO 25015G25KT 4000 RA BKN005
19:30
V
17 °C 10 km+ - 240° 240° 14 kt METAR LFBD 261730Z AUTO 24014KT CAVOK 17/12 Q1012 TEMPO 4000 RA BKN010 BECMG 27015G25KT
19:00
V
17 °C 10 km+ 7.800 ft 240° 240° 13 kt METAR LFBD 261700Z AUTO 24013KT 9999 FEW034 SCT041 BKN078 17/12 Q1012 TEMPO 4000 RA BKN010 BECMG 27015G25KT
18:30
V
17 °C 10 km+ 3.300 ft 270° 270° 19 - 29 kt METAR LFBD 261630Z AUTO 27019G29KT 9999 -RA BKN033 OVC040 17/12 Q1013 TEMPO 4000 RA BKN010
18:00
V
19 °C 10 km+ 4.700 ft 280° 280° 18 kt METAR LFBD 261600Z AUTO 28018KT 9999 OVC047 19/09 Q1013 BECMG 27015G25KT
17:30
V
20 °C 10 km+ - 260° 260° 19 kt METAR LFBD 261530Z AUTO 26019KT CAVOK 20/08 Q1013 BECMG 27015G25KT
17:00
V
20 °C 10 km+ - 270° 270° 17 kt METAR LFBD 261500Z AUTO 27017KT 9999 FEW047 SCT054 20/07 Q1013 BECMG 27015G25KT
16:30
V
20 °C 10 km+ 6.600 ft 280° 280° 20 kt METAR LFBD 261430Z AUTO 28020KT 9999 SCT048 BKN066 20/08 Q1013 BECMG 27015G25KT
16:00
V
20 °C 10 km+ 4.400 ft 270° 270° 17 kt METAR LFBD 261400Z AUTO 27017KT 9999 BKN044 BKN050 BKN064 20/09 Q1013 BECMG 27015G25KT
15:30
V
20 °C 10 km+ 5.600 ft 270° 270° 16 kt METAR LFBD 261330Z AUTO 27016KT 9999 SCT044 BKN056 BKN068 20/09 Q1013 BECMG 27015G25KT
15:00
V
20 °C 10 km+ 4.400 ft 270° 270° 16 kt METAR LFBD 261300Z AUTO 27016KT 230V300 9999 BKN044 BKN058 BKN070 20/09 Q1013 BECMG 27015G25KT
14:30
V
20 °C 10 km+ 5.600 ft 260° 260° 12 kt METAR LFBD 261230Z AUTO 26012KT 230V300 9999 SCT047 BKN056 BKN160 20/08 Q1014 BECMG 27015G25KT
14:00
V
20 °C 10 km+ 5.400 ft 270° 270° 13 kt METAR LFBD 261200Z AUTO 27013KT 9999 FEW042 BKN054 BKN130 20/08 Q1014 BECMG 27015G25KT
13:30
V
19 °C 10 km+ 3.900 ft 260° 260° 12 kt METAR LFBD 261130Z AUTO 26012KT 9999 BKN039 BKN045 BKN062 19/10 Q1014 BECMG 27015G25KT
13:00
V
19 °C 10 km+ 4.700 ft 240° 240° 11 kt METAR LFBD 261100Z AUTO 24011KT 200V290 9999 SCT035 BKN047 BKN060 19/10 Q1014 BECMG 27015G25KT
12:30
V
19 °C 10 km+ 4.200 ft 250° 250° 11 kt METAR LFBD 261030Z AUTO 25011KT 9999 SCT032 BKN042 BKN056 19/10 Q1015 BECMG 27015G25KT
12:00
V
19 °C 10 km+ 15.000 ft 250° 250° 8 kt METAR LFBD 261000Z AUTO 25008KT 210V280 9999 FEW038 SCT056 OVC150 19/10 Q1015 NOSIG
11:30
V
19 °C 10 km+ 5.400 ft 240° 240° 7 kt METAR LFBD 260930Z AUTO 24007KT 200V290 9999 FEW042 BKN054 BKN070 19/09 Q1015 NOSIG
11:00
V
17 °C 10 km+ 7.600 ft 220° 220° 6 kt METAR LFBD 260900Z AUTO 22006KT 9999 FEW047 BKN076 BKN160 17/09 Q1015 NOSIG
10:30
V
16 °C 10 km+ - 210° 210° 5 kt METAR LFBD 260830Z AUTO 21005KT CAVOK 16/11 Q1015 NOSIG
10:00
V
14 °C 10 km+ - Var Var 2 kt METAR LFBD 260800Z AUTO VRB02KT CAVOK 14/11 Q1015 NOSIG
09:30
V
11 °C 10 km+ - Var 000° 0 kt METAR LFBD 260730Z AUTO 00000KT CAVOK 11/10 Q1015 NOSIG
09:00
V
10 °C 10 km+ - Var Var 2 kt METAR LFBD 260700Z AUTO VRB02KT CAVOK 10/08 Q1015 TEMPO 0600 BCFG
08:30
V
8 °C 8 km - Var 000° 0 kt METAR LFBD 260630Z AUTO 00000KT 8000 NSC 08/08 Q1015 TEMPO 0600 BCFG
08:00
I
8 °C 2,1 km 20.000 ft 190° 190° 1 kt METAR LFBD 260600Z AUTO 19001KT 7000 2100 FEW001 SCT060 BKN200 08/07 Q1015 TEMPO 0600 BCFG
07:30
L
8 °C 550 m - 260° 260° 1 kt METAR LFBD 260530Z AUTO 26001KT 7000 0550 R23/0900U R05/0650N R29/P2300 BCFG NSC 08/07 Q1015 TEMPO 0600 BCFG
07:00
L
8 °C 8 km - Var 000° 0 kt METAR LFBD 260500Z AUTO 00000KT 8000 R23/1300N VV/// 08/07 Q1015 TEMPO 0800 BCFG BECMG NSC
06:30
L
8 °C 400 m - 240° 240° 1 kt METAR LFBD 260430Z AUTO 24001KT 0600 0400 R23/0700N R05/P2300U R29/1000U FG NSC 08/07 Q1015 TEMPO 0800 BCFG
06:00
V
8 °C 10 km+ - 250° 250° 2 kt METAR LFBD 260400Z AUTO 25002KT CAVOK 08/07 Q1016 TEMPO 0800 BCFG
05:30
L
8 °C 700 m - 260° 260° 2 kt METAR LFBD 260330Z AUTO 26002KT 9999 0700 R23/P2300 R05/1300D R29/1700U BCFG NSC 08/07 Q1016 TEMPO 0800 BCFG
05:00
I
8 °C 2,1 km - 260° 260° 3 kt METAR LFBD 260300Z AUTO 26003KT 9999 2100 NSC 08/06 Q1016 TEMPO 0800 BCFG
04:30
V
9 °C 10 km+ - Var Var 3 kt METAR LFBD 260230Z AUTO VRB03KT CAVOK 09/08 Q1016 TEMPO 0800 BCFG
04:00
V
9 °C 10 km+ - Var Var 3 kt METAR LFBD 260200Z AUTO VRB03KT CAVOK 09/08 Q1016 TEMPO 0800 BCFG
03:30
V
9 °C 10 km+ - 270° 270° 1 kt METAR LFBD 260130Z AUTO 27001KT CAVOK 09/07 Q1016 TEMPO 0800 BCFG
03:00
I
9 °C 1,8 km - 280° 280° 2 kt METAR LFBD 260100Z AUTO 28002KT 9999 1800 NSC 09/08 Q1016 TEMPO 0800 BCFG
02:30
I
9 °C 4,9 km - Var Var 1 kt METAR LFBD 260030Z AUTO VRB01KT 9999 4900 NSC 09/08 Q1016 TEMPO 0800 BCFG
02:00
V
10 °C 10 km+ - Var 000° 0 kt METAR LFBD 260000Z AUTO 00000KT CAVOK 10/08 Q1016 NOSIG
01:30
V
10 °C 10 km+ - Var Var 2 kt METAR LFBD 252330Z AUTO VRB02KT CAVOK 10/09 Q1016 NOSIG
01:00
L
11 °C 1 km - 310° 310° 2 kt METAR LFBD 252300Z AUTO 31002KT 9999 1000 R23/P2300 R05/1300D R29/P2300 NSC 11/09 Q1017 NOSIG
00:30
I
11 °C 1,8 km - 270° 270° 2 kt METAR LFBD 252230Z AUTO 27002KT 9999 1800 NSC 11/09 Q1017 NOSIG
00:00
V
12 °C 10 km+ - 280° 280° 1 kt METAR LFBD 252200Z AUTO 28001KT CAVOK 12/09 Q1017 NOSIG

25 septembre 2022

Temps Code Temps Temp. Vue Base cloud Vent METAR/SPECI
23:30
V
13 °C 10 km+ - Var Var 2 kt METAR LFBD 252130Z AUTO VRB02KT CAVOK 13/10 Q1017 NOSIG
23:00
V
13 °C 10 km+ - Var Var 2 kt METAR LFBD 252100Z AUTO VRB02KT CAVOK 13/09 Q1017 NOSIG
22:30
V
14 °C 10 km+ - 290° 290° 3 kt METAR LFBD 252030Z AUTO 29003KT CAVOK 14/09 Q1017 NOSIG
22:00
V
14 °C 10 km+ - 310° 310° 5 kt METAR LFBD 252000Z AUTO 31005KT 290V350 CAVOK 14/09 Q1017 NOSIG
21:30
V
15 °C 10 km+ - 310° 310° 6 kt METAR LFBD 251930Z AUTO 31006KT 300V020 CAVOK 15/09 Q1017 NOSIG
21:00
V
16 °C 10 km+ - 290° 290° 5 kt METAR LFBD 251900Z AUTO 29005KT CAVOK 16/09 Q1017 NOSIG
20:30
V
16 °C 10 km+ - 300° 300° 6 kt METAR LFBD 251830Z AUTO 30006KT CAVOK 16/09 Q1016 NOSIG
20:00
V
17 °C 10 km+ - 310° 310° 4 kt METAR LFBD 251800Z AUTO 31004KT 290V010 CAVOK 17/09 Q1016 NOSIG
19:30
V
18 °C 10 km+ - 350° 350° 5 kt METAR LFBD 251730Z AUTO 35005KT 320V040 CAVOK 18/09 Q1016 NOSIG
19:00
V
18 °C 10 km+ - 330° 330° 7 kt METAR LFBD 251700Z AUTO 33007KT CAVOK 18/09 Q1015 NOSIG
18:30
V
19 °C 10 km+ - 340° 340° 7 kt METAR LFBD 251630Z AUTO 34007KT 320V050 CAVOK 19/09 Q1015 NOSIG
18:00
V
20 °C 10 km+ - 320° 320° 6 kt METAR LFBD 251600Z AUTO 32006KT 300V020 CAVOK 20/08 Q1015 NOSIG
17:30
V
21 °C 10 km+ - 300° 300° 7 kt METAR LFBD 251530Z AUTO 30007KT 250V340 CAVOK 21/09 Q1015 NOSIG
17:00
I
20 °C 3,1 km - 330° 330° 5 kt METAR LFBD 251500Z AUTO 33005KT 300V060 9999 3100 NSC 20/08 Q1015 NOSIG
16:30
V
20 °C 10 km+ - 300° 300° 7 kt METAR LFBD 251430Z AUTO 30007KT 270V350 CAVOK 20/08 Q1015 NOSIG
16:00
V
21 °C 10 km+ - 310° 310° 4 kt METAR LFBD 251400Z AUTO 31004KT 260V340 CAVOK 21/07 Q1015 NOSIG
15:30
V
21 °C 10 km+ - Var Var 4 kt METAR LFBD 251330Z AUTO VRB04KT CAVOK 21/07 Q1016 NOSIG
15:00
V
20 °C 10 km+ - Var Var 2 kt METAR LFBD 251300Z AUTO VRB02KT CAVOK 20/08 Q1016 NOSIG
14:30
V
20 °C 10 km+ - Var Var 4 kt METAR LFBD 251230Z AUTO VRB04KT CAVOK 20/07 Q1016 NOSIG
14:00
V
20 °C 10 km+ - Var Var 3 kt METAR LFBD 251200Z AUTO VRB03KT 9999 FEW046 20/08 Q1016 NOSIG
Données plus anciennes

Nous et des tiers suivons ton comportement sur Internet sur notre site Web à l'aide de cookies. Si tu continues, nous supposons que tu acceptes notre politique en matière de cookies. Apprendre plus